sensor_id;sensor_type;location;lat;lon;timestamp;pressure;altitude;pressure_sealevel;temperature;humidity
58955;BME280;45815;52.334;5.024;2023-03-04T00:01:35;102734.25;;;7.04;100.00
58955;BME280;45815;52.334;5.024;2023-03-04T00:04:01;102738.75;;;7.07;100.00
58955;BME280;45815;52.334;5.024;2023-03-04T00:06:26;102739.09;;;6.98;100.00
58955;BME280;45815;52.334;5.024;2023-03-04T00:08:52;102734.75;;;6.98;100.00
58955;BME280;45815;52.334;5.024;2023-03-04T00:11:17;102735.78;;;7.01;100.00
58955;BME280;45815;52.334;5.024;2023-03-04T00:13:42;102732.66;;;6.93;100.00
58955;BME280;45815;52.334;5.024;2023-03-04T00:16:08;102729.97;;;6.78;100.00
58955;BME280;45815;52.334;5.024;2023-03-04T00:18:33;102734.28;;;6.78;100.00
58955;BME280;45815;52.334;5.024;2023-03-04T00:20:59;102744.22;;;6.83;100.00
58955;BME280;45815;52.334;5.024;2023-03-04T00:23:24;102739.00;;;6.83;100.00
58955;BME280;45815;52.334;5.024;2023-03-04T00:25:50;102733.56;;;6.93;100.00
58955;BME280;45815;52.334;5.024;2023-03-04T00:28:15;102729.34;;;6.95;100.00
58955;BME280;45815;52.334;5.024;2023-03-04T00:30:40;102733.94;;;7.00;100.00
58955;BME280;45815;52.334;5.024;2023-03-04T00:33:06;102732.94;;;6.97;100.00
58955;BME280;45815;52.334;5.024;2023-03-04T00:35:31;102731.34;;;7.00;100.00
58955;BME280;45815;52.334;5.024;2023-03-04T00:37:57;102737.97;;;6.94;100.00
58955;BME280;45815;52.334;5.024;2023-03-04T00:40:22;102726.03;;;6.85;100.00
58955;BME280;45815;52.334;5.024;2023-03-04T00:42:47;102731.16;;;6.83;100.00
58955;BME280;45815;52.334;5.024;2023-03-04T00:45:13;102736.78;;;6.76;100.00
58955;BME280;45815;52.334;5.024;2023-03-04T00:47:38;102736.78;;;6.76;100.00
58955;BME280;45815;52.334;5.024;2023-03-04T00:50:04;102738.72;;;6.65;100.00
58955;BME280;45815;52.334;5.024;2023-03-04T00:52:30;102745.03;;;6.69;100.00
58955;BME280;45815;52.334;5.024;2023-03-04T00:54:55;102744.13;;;6.68;100.00
58955;BME280;45815;52.334;5.024;2023-03-04T00:57:21;102742.03;;;6.63;100.00
58955;BME280;45815;52.334;5.024;2023-03-04T00:59:46;102739.19;;;6.60;100.00
58955;BME280;45815;52.334;5.024;2023-03-04T01:02:12;102742.81;;;6.62;100.00
58955;BME280;45815;52.334;5.024;2023-03-04T01:04:37;102741.41;;;6.67;100.00
58955;BME280;45815;52.334;5.024;2023-03-04T01:07:03;102743.81;;;6.64;100.00
58955;BME280;45815;52.334;5.024;2023-03-04T01:09:29;102746.25;;;6.61;100.00
58955;BME280;45815;52.334;5.024;2023-03-04T01:11:55;102746.00;;;6.58;100.00
58955;BME280;45815;52.334;5.024;2023-03-04T01:14:21;102741.50;;;6.55;100.00
58955;BME280;45815;52.334;5.024;2023-03-04T01:16:47;102740.19;;;6.62;100.00
58955;BME280;45815;52.334;5.024;2023-03-04T01:19:13;102728.47;;;6.55;100.00
58955;BME280;45815;52.334;5.024;2023-03-04T01:21:39;102740.19;;;6.48;100.00
58955;BME280;45815;52.334;5.024;2023-03-04T01:24:04;102734.31;;;6.51;100.00
58955;BME280;45815;52.334;5.024;2023-03-04T01:26:30;102727.84;;;6.46;100.00
58955;BME280;45815;52.334;5.024;2023-03-04T01:28:56;102730.97;;;6.40;100.00
58955;BME280;45815;52.334;5.024;2023-03-04T01:31:21;102734.41;;;6.39;100.00
58955;BME280;45815;52.334;5.024;2023-03-04T01:33:47;102726.25;;;6.34;100.00
58955;BME280;45815;52.334;5.024;2023-03-04T01:36:12;102722.31;;;6.41;100.00
58955;BME280;45815;52.334;5.024;2023-03-04T01:38:37;102715.31;;;6.40;100.00
58955;BME280;45815;52.334;5.024;2023-03-04T01:41:03;102725.44;;;6.36;100.00
58955;BME280;45815;52.334;5.024;2023-03-04T01:43:30;102693.72;;;6.29;100.00
58955;BME280;45815;52.334;5.024;2023-03-04T01:45:57;102717.34;;;6.44;100.00
58955;BME280;45815;52.334;5.024;2023-03-04T01:48:26;102716.41;;;6.44;100.00
58955;BME280;45815;52.334;5.024;2023-03-04T01:50:52;102709.50;;;6.31;100.00
58955;BME280;45815;52.334;5.024;2023-03-04T01:53:26;102715.41;;;6.28;100.00
58955;BME280;45815;52.334;5.024;2023-03-04T01:55:59;102707.69;;;6.30;100.00
58955;BME280;45815;52.334;5.024;2023-03-04T01:58:28;102704.28;;;6.31;100.00
58955;BME280;45815;52.334;5.024;2023-03-04T02:00:55;102704.09;;;6.28;100.00
58955;BME280;45815;52.334;5.024;2023-03-04T02:03:21;102691.25;;;6.31;100.00
58955;BME280;45815;52.334;5.024;2023-03-04T02:05:51;102694.34;;;6.39;100.00
58955;BME280;45815;52.334;5.024;2023-03-04T02:08:20;102688.03;;;6.35;100.00
58955;BME280;45815;52.334;5.024;2023-03-04T02:10:46;102678.81;;;6.40;100.00
58955;BME280;45815;52.334;5.024;2023-03-04T02:13:13;102683.81;;;6.50;100.00
58955;BME280;45815;52.334;5.024;2023-03-04T02:15:40;102682.31;;;6.54;100.00
58955;BME280;45815;52.334;5.024;2023-03-04T02:18:18;102677.81;;;6.51;100.00
58955;BME280;45815;52.334;5.024;2023-03-04T02:23:31;102666.47;;;6.38;100.00
58955;BME280;45815;52.334;5.024;2023-03-04T02:26:15;102665.88;;;6.42;100.00
58955;BME280;45815;52.334;5.024;2023-03-04T02:28:43;102666.78;;;6.42;100.00
58955;BME280;45815;52.334;5.024;2023-03-04T02:31:19;102651.81;;;6.40;100.00
58955;BME280;45815;52.334;5.024;2023-03-04T02:33:46;102655.03;;;6.36;100.00
58955;BME280;45815;52.334;5.024;2023-03-04T02:36:12;102651.41;;;6.33;100.00
58955;BME280;45815;52.334;5.024;2023-03-04T02:38:37;102653.25;;;6.34;100.00
58955;BME280;45815;52.334;5.024;2023-03-04T02:41:03;102645.72;;;6.39;100.00
58955;BME280;45815;52.334;5.024;2023-03-04T02:43:29;102638.84;;;6.41;100.00
58955;BME280;45815;52.334;5.024;2023-03-04T02:45:55;102637.38;;;6.31;100.00
58955;BME280;45815;52.334;5.024;2023-03-04T02:48:21;102643.69;;;6.35;100.00
58955;BME280;45815;52.334;5.024;2023-03-04T02:50:50;102640.97;;;6.33;100.00
58955;BME280;45815;52.334;5.024;2023-03-04T02:53:17;102637.59;;;6.34;100.00
58955;BME280;45815;52.334;5.024;2023-03-04T02:55:43;102640.97;;;6.33;100.00
58955;BME280;45815;52.334;5.024;2023-03-04T02:58:11;102633.47;;;6.38;100.00
58955;BME280;45815;52.334;5.024;2023-03-04T03:00:36;102628.66;;;6.31;100.00
58955;BME280;45815;52.334;5.024;2023-03-04T03:03:03;102635.06;;;6.36;100.00
58955;BME280;45815;52.334;5.024;2023-03-04T03:05:29;102633.28;;;6.35;100.00
58955;BME280;45815;52.334;5.024;2023-03-04T03:07:55;102634.69;;;6.30;100.00
58955;BME280;45815;52.334;5.024;2023-03-04T03:10:22;102617.81;;;6.25;100.00
58955;BME280;45815;52.334;5.024;2023-03-04T03:12:47;102630.84;;;6.25;100.00
58955;BME280;45815;52.334;5.024;2023-03-04T03:15:13;102623.84;;;6.24;100.00
58955;BME280;45815;52.334;5.024;2023-03-04T03:17:39;102619.63;;;6.26;100.00
58955;BME280;45815;52.334;5.024;2023-03-04T03:20:05;102621.00;;;6.34;100.00
58955;BME280;45815;52.334;5.024;2023-03-04T03:22:30;102624.44;;;6.33;100.00
58955;BME280;45815;52.334;5.024;2023-03-04T03:24:56;102626.22;;;6.34;100.00
58955;BME280;45815;52.334;5.024;2023-03-04T03:27:21;102626.63;;;6.40;100.00
58955;BME280;45815;52.334;5.024;2023-03-04T03:29:48;102617.81;;;6.38;100.00
58955;BME280;45815;52.334;5.024;2023-03-04T03:32:13;102620.59;;;6.41;100.00
58955;BME280;45815;52.334;5.024;2023-03-04T03:34:40;102616.03;;;6.37;100.00
58955;BME280;45815;52.334;5.024;2023-03-04T03:37:07;102615.19;;;6.38;100.00
58955;BME280;45815;52.334;5.024;2023-03-04T03:39:32;102610.81;;;6.37;100.00
58955;BME280;45815;52.334;5.024;2023-03-04T03:41:57;102617.41;;;6.32;100.00
58955;BME280;45815;52.334;5.024;2023-03-04T03:44:23;102628.47;;;6.28;100.00
58955;BME280;45815;52.334;5.024;2023-03-04T03:46:48;102616.31;;;6.28;100.00
58955;BME280;45815;52.334;5.024;2023-03-04T03:49:14;102620.63;;;6.28;100.00
58955;BME280;45815;52.334;5.024;2023-03-04T03:51:41;102599.38;;;6.22;100.00
58955;BME280;45815;52.334;5.024;2023-03-04T03:54:07;102627.16;;;6.34;100.00
58955;BME280;45815;52.334;5.024;2023-03-04T03:56:33;102619.53;;;6.38;100.00
58955;BME280;45815;52.334;5.024;2023-03-04T03:58:58;102621.72;;;6.31;100.00
58955;BME280;45815;52.334;5.024;2023-03-04T04:01:24;102621.13;;;6.22;100.00
58955;BME280;45815;52.334;5.024;2023-03-04T04:03:49;102627.94;;;6.20;100.00
58955;BME280;45815;52.334;5.024;2023-03-04T04:06:15;102619.44;;;6.23;100.00
58955;BME280;45815;52.334;5.024;2023-03-04T04:08:40;102622.41;;;6.16;100.00
58955;BME280;45815;52.334;5.024;2023-03-04T04:11:09;102620.44;;;6.11;100.00
58955;BME280;45815;52.334;5.024;2023-03-04T04:13:34;102618.22;;;6.18;100.00
58955;BME280;45815;52.334;5.024;2023-03-04T04:15:59;102620.03;;;6.19;100.00
58955;BME280;45815;52.334;5.024;2023-03-04T04:18:25;102618.31;;;6.19;100.00
58955;BME280;45815;52.334;5.024;2023-03-04T04:20:51;102621.13;;;6.22;100.00
58955;BME280;45815;52.334;5.024;2023-03-04T04:23:17;102624.34;;;6.18;100.00
58955;BME280;45815;52.334;5.024;2023-03-04T04:25:42;102608.59;;;6.17;100.00
58955;BME280;45815;52.334;5.024;2023-03-04T04:28:07;102620.81;;;6.18;100.00
58955;BME280;45815;52.334;5.024;2023-03-04T04:30:33;102614.13;;;6.21;100.00
58955;BME280;45815;52.334;5.024;2023-03-04T04:32:59;102615.91;;;6.22;100.00
58955;BME280;45815;52.334;5.024;2023-03-04T04:35:27;102608.78;;;6.20;100.00
58955;BME280;45815;52.334;5.024;2023-03-04T04:37:52;102614.72;;;6.17;100.00
58955;BME280;45815;52.334;5.024;2023-03-04T04:40:18;102621.22;;;6.10;100.00
58955;BME280;45815;52.334;5.024;2023-03-04T04:42:43;102617.00;;;5.99;100.00
58955;BME280;45815;52.334;5.024;2023-03-04T04:45:09;102618.81;;;6.00;100.00
58955;BME280;45815;52.334;5.024;2023-03-04T04:47:35;102618.00;;;6.01;100.00
58955;BME280;45815;52.334;5.024;2023-03-04T04:50:01;102619.25;;;6.06;100.00
58955;BME280;45815;52.334;5.024;2023-03-04T04:52:26;102622.13;;;6.11;100.00
58955;BME280;45815;52.334;5.024;2023-03-04T04:54:51;102620.22;;;6.08;100.00
58955;BME280;45815;52.334;5.024;2023-03-04T04:57:17;102628.03;;;6.08;100.00
58955;BME280;45815;52.334;5.024;2023-03-04T04:59:42;102627.66;;;6.02;100.00
58955;BME280;45815;52.334;5.024;2023-03-04T05:02:08;102630.34;;;6.04;100.00
58955;BME280;45815;52.334;5.024;2023-03-04T05:04:33;102628.25;;;5.98;100.00
58955;BME280;45815;52.334;5.024;2023-03-04T05:06:58;102627.22;;;5.96;100.00
58955;BME280;45815;52.334;5.024;2023-03-04T05:09:24;102629.41;;;5.90;100.00
58955;BME280;45815;52.334;5.024;2023-03-04T05:11:49;102629.50;;;5.91;100.00
58955;BME280;45815;52.334;5.024;2023-03-04T05:14:15;102617.06;;;5.87;100.00
58955;BME280;45815;52.334;5.024;2023-03-04T05:16:40;102632.56;;;5.72;100.00
58955;BME280;45815;52.334;5.024;2023-03-04T05:19:06;102635.38;;;5.76;100.00
58955;BME280;45815;52.334;5.024;2023-03-04T05:21:31;102640.19;;;5.69;100.00
58955;BME280;45815;52.334;5.024;2023-03-04T05:23:57;102639.38;;;5.70;100.00
58955;BME280;45815;52.334;5.024;2023-03-04T05:26:22;102644.06;;;5.63;100.00
58955;BME280;45815;52.334;5.024;2023-03-04T05:28:47;102640.97;;;5.68;100.00
58955;BME280;45815;52.334;5.024;2023-03-04T05:31:13;102633.28;;;5.70;100.00
58955;BME280;45815;52.334;5.024;2023-03-04T05:33:39;102631.16;;;5.64;100.00
58955;BME280;45815;52.334;5.024;2023-03-04T05:36:06;102641.19;;;5.71;100.00
58955;BME280;45815;52.334;5.024;2023-03-04T05:38:32;102634.41;;;5.74;100.00
58955;BME280;45815;52.334;5.024;2023-03-04T05:41:00;102637.97;;;5.76;100.00
58955;BME280;45815;52.334;5.024;2023-03-04T05:43:26;102638.41;;;5.82;100.00
58955;BME280;45815;52.334;5.024;2023-03-04T05:45:53;102628.75;;;5.67;100.00
58955;BME280;45815;52.334;5.024;2023-03-04T05:48:18;102636.19;;;5.75;100.00
58955;BME280;45815;52.334;5.024;2023-03-04T05:50:44;102637.00;;;5.74;100.00
58955;BME280;45815;52.334;5.024;2023-03-04T05:53:09;102642.72;;;5.81;100.00
58955;BME280;45815;52.334;5.024;2023-03-04T05:55:35;102622.25;;;5.87;100.00
58955;BME280;45815;52.334;5.024;2023-03-04T05:58:00;102624.97;;;5.89;100.00
58955;BME280;45815;52.334;5.024;2023-03-04T06:00:26;102614.13;;;5.83;100.00
58955;BME280;45815;52.334;5.024;2023-03-04T06:02:51;102627.00;;;5.93;100.00
58955;BME280;45815;52.334;5.024;2023-03-04T06:05:17;102621.00;;;5.94;100.00
58955;BME280;45815;52.334;5.024;2023-03-04T06:07:43;102599.63;;;5.86;100.00
58955;BME280;45815;52.334;5.024;2023-03-04T06:10:13;102619.97;;;5.92;100.00
58955;BME280;45815;52.334;5.024;2023-03-04T06:12:39;102622.25;;;5.87;100.00
58955;BME280;45815;52.334;5.024;2023-03-04T06:15:05;102602.75;;;5.81;100.00
58955;BME280;45815;52.334;5.024;2023-03-04T06:17:32;102616.66;;;5.81;100.00
58955;BME280;45815;52.334;5.024;2023-03-04T06:19:57;102599.72;;;5.75;100.00
58955;BME280;45815;52.334;5.024;2023-03-04T06:22:23;102630.16;;;5.76;100.00
58955;BME280;45815;52.334;5.024;2023-03-04T06:24:48;102626.53;;;5.60;100.00
58955;BME280;45815;52.334;5.024;2023-03-04T06:27:13;102642.16;;;5.60;100.00
58955;BME280;45815;52.334;5.024;2023-03-04T06:29:41;102638.97;;;5.64;100.00
58955;BME280;45815;52.334;5.024;2023-03-04T06:32:06;102632.56;;;5.72;100.00
58955;BME280;45815;52.334;5.024;2023-03-04T06:34:32;102631.75;;;5.60;100.00
58955;BME280;45815;52.334;5.024;2023-03-04T06:36:58;102646.41;;;5.71;100.00
58955;BME280;45815;52.334;5.024;2023-03-04T06:39:24;102645.59;;;5.72;100.00
58955;BME280;45815;52.334;5.024;2023-03-04T06:41:50;102641.59;;;5.78;100.00
58955;BME280;45815;52.334;5.024;2023-03-04T06:44:16;102638.41;;;5.82;100.00
58955;BME280;45815;52.334;5.024;2023-03-04T06:46:41;102643.63;;;5.82;100.00
58955;BME280;45815;52.334;5.024;2023-03-04T06:49:06;102644.63;;;5.84;100.00
58955;BME280;45815;52.334;5.024;2023-03-04T06:51:32;102652.25;;;5.81;100.00
58955;BME280;45815;52.334;5.024;2023-03-04T06:53:57;102646.03;;;5.79;100.00
58955;BME280;45815;52.334;5.024;2023-03-04T06:56:23;102644.50;;;5.82;100.00
58955;BME280;45815;52.334;5.024;2023-03-04T06:58:48;102655.16;;;5.85;100.00
58955;BME280;45815;52.334;5.024;2023-03-04T07:01:25;102652.25;;;5.81;100.00
58955;BME280;45815;52.334;5.024;2023-03-04T07:03:52;102650.31;;;5.78;100.00
58955;BME280;45815;52.334;5.024;2023-03-04T07:06:20;102652.44;;;5.84;100.00
58955;BME280;45815;52.334;5.024;2023-03-04T07:08:47;102656.84;;;5.85;100.00
58955;BME280;45815;52.334;5.024;2023-03-04T07:11:13;102648.75;;;5.93;100.00
58955;BME280;45815;52.334;5.024;2023-03-04T07:13:38;102637.44;;;5.93;100.00
58955;BME280;45815;52.334;5.024;2023-03-04T07:16:05;102648.69;;;6.05;100.00
58955;BME280;45815;52.334;5.024;2023-03-04T07:18:30;102641.47;;;6.15;100.00
58955;BME280;45815;52.334;5.024;2023-03-04T07:20:56;102649.59;;;6.19;100.00
58955;BME280;45815;52.334;5.024;2023-03-04T07:23:21;102649.09;;;6.25;100.00
58955;BME280;45815;52.334;5.024;2023-03-04T07:25:48;102646.72;;;6.28;100.00
58955;BME280;45815;52.334;5.024;2023-03-04T07:28:14;102646.38;;;6.37;100.00
58955;BME280;45815;52.334;5.024;2023-03-04T07:30:40;102655.22;;;6.39;100.00
58955;BME280;45815;52.334;5.024;2023-03-04T07:33:05;102661.75;;;6.45;100.00
58955;BME280;45815;52.334;5.024;2023-03-04T07:35:30;102660.13;;;6.47;100.00
58955;BME280;45815;52.334;5.024;2023-03-04T07:37:56;102655.75;;;6.46;100.00
58955;BME280;45815;52.334;5.024;2023-03-04T07:40:21;102666.59;;;6.39;100.00
58955;BME280;45815;52.334;5.024;2023-03-04T07:42:52;102667.97;;;6.47;100.00
58955;BME280;45815;52.334;5.024;2023-03-04T07:45:18;102645.19;;;6.45;100.00
58955;BME280;45815;52.334;5.024;2023-03-04T07:47:44;102639.47;;;6.50;100.00
58955;BME280;45815;52.334;5.024;2023-03-04T07:50:10;102657.91;;;6.67;100.00
58955;BME280;45815;52.334;5.024;2023-03-04T07:52:47;102655.88;;;6.76;100.00
58955;BME280;45815;52.334;5.024;2023-03-04T07:55:14;102660.31;;;6.77;100.00
58955;BME280;45815;52.334;5.024;2023-03-04T07:57:41;102664.31;;;6.85;100.00
58955;BME280;45815;52.334;5.024;2023-03-04T08:00:10;102658.44;;;7.03;100.00
58955;BME280;45815;52.334;5.024;2023-03-04T08:02:39;102659.06;;;6.98;100.00
58955;BME280;45815;52.334;5.024;2023-03-04T08:05:04;102660.78;;;6.98;100.00
58955;BME280;45815;52.334;5.024;2023-03-04T08:07:30;102663.66;;;7.03;100.00
58955;BME280;45815;52.334;5.024;2023-03-04T08:09:55;102662.81;;;7.17;100.00
58955;BME280;45815;52.334;5.024;2023-03-04T08:12:21;102653.88;;;7.13;100.00
58955;BME280;45815;52.334;5.024;2023-03-04T08:14:48;102661.69;;;7.27;100.00
58955;BME280;45815;52.334;5.024;2023-03-04T08:17:14;102669.66;;;7.15;100.00
58955;BME280;45815;52.334;5.024;2023-03-04T08:19:39;102675.13;;;7.05;100.00
58955;BME280;45815;52.334;5.024;2023-03-04T08:22:05;102668.84;;;7.16;100.00
58955;BME280;45815;52.334;5.024;2023-03-04T08:24:31;102670.22;;;7.24;100.00
58955;BME280;45815;52.334;5.024;2023-03-04T08:26:56;102650.41;;;7.28;100.00
58955;BME280;45815;52.334;5.024;2023-03-04T08:29:23;102669.75;;;7.45;100.00
58955;BME280;45815;52.334;5.024;2023-03-04T08:31:50;102672.31;;;7.30;100.00
58955;BME280;45815;52.334;5.024;2023-03-04T08:34:17;102672.78;;;7.37;100.00
58955;BME280;45815;52.334;5.024;2023-03-04T08:36:43;102666.78;;;7.25;100.00
58955;BME280;45815;52.334;5.024;2023-03-04T08:39:11;102675.31;;;7.36;100.00
58955;BME280;45815;52.334;5.024;2023-03-04T08:41:37;102679.38;;;7.46;100.00
58955;BME280;45815;52.334;5.024;2023-03-04T08:44:03;102676.03;;;7.48;100.00
58955;BME280;45815;52.334;5.024;2023-03-04T08:46:29;102682.28;;;7.50;100.00
58955;BME280;45815;52.334;5.024;2023-03-04T08:48:54;102668.09;;;7.47;100.00
58955;BME280;45815;52.334;5.024;2023-03-04T08:51:20;102671.00;;;7.51;100.00
58955;BME280;45815;52.334;5.024;2023-03-04T08:53:45;102669.16;;;7.64;100.00
58955;BME280;45815;52.334;5.024;2023-03-04T08:56:11;102663.28;;;7.68;100.00
58955;BME280;45815;52.334;5.024;2023-03-04T08:58:38;102673.72;;;7.68;100.00
58955;BME280;45815;52.334;5.024;2023-03-04T09:01:04;102669.97;;;7.77;100.00
58955;BME280;45815;52.334;5.024;2023-03-04T09:03:31;102674.56;;;7.81;100.00
58955;BME280;45815;52.334;5.024;2023-03-04T09:05:57;102671.50;;;7.89;100.00
58955;BME280;45815;52.334;5.024;2023-03-04T09:08:22;102669.88;;;7.91;100.00
58955;BME280;45815;52.334;5.024;2023-03-04T09:10:51;102667.47;;;7.94;100.00
58955;BME280;45815;52.334;5.024;2023-03-04T09:13:17;102675.03;;;7.89;100.00
58955;BME280;45815;52.334;5.024;2023-03-04T09:15:44;102671.16;;;7.82;100.00
58955;BME280;45815;52.334;5.024;2023-03-04T09:18:10;102670.16;;;7.80;100.00
58955;BME280;45815;52.334;5.024;2023-03-04T09:20:36;102664.59;;;7.89;100.00
58955;BME280;45815;52.334;5.024;2023-03-04T09:23:01;102660.41;;;7.93;100.00
58955;BME280;45815;52.334;5.024;2023-03-04T09:25:26;102657.34;;;8.00;100.00
58955;BME280;45815;52.334;5.024;2023-03-04T09:27:52;102654.47;;;8.10;100.00
58955;BME280;45815;52.334;5.024;2023-03-04T09:30:18;102662.56;;;8.30;100.00
58955;BME280;45815;52.334;5.024;2023-03-04T09:32:43;102651.94;;;8.27;100.00
58955;BME280;45815;52.334;5.024;2023-03-04T09:35:09;102660.41;;;8.22;100.00
58955;BME280;45815;52.334;5.024;2023-03-04T09:37:35;102653.91;;;8.31;100.00
58955;BME280;45815;52.334;5.024;2023-03-04T09:40:01;102653.34;;;8.51;100.00
58955;BME280;45815;52.334;5.024;2023-03-04T09:42:34;102653.19;;;8.48;100.00
58955;BME280;45815;52.334;5.024;2023-03-04T09:45:03;102647.22;;;8.51;100.00
58955;BME280;45815;52.334;5.024;2023-03-04T09:47:33;102651.72;;;8.53;100.00
58955;BME280;45815;52.334;5.024;2023-03-04T09:50:00;102625.19;;;8.47;100.00
58955;BME280;45815;52.334;5.024;2023-03-04T10:00:46;102631.25;;;8.46;100.00
58955;BME280;45815;52.334;5.024;2023-03-04T10:03:23;102637.56;;;8.50;100.00
58955;BME280;45815;52.334;5.024;2023-03-04T10:11:47;102641.38;;;8.25;100.00
58955;BME280;45815;52.334;5.024;2023-03-04T10:14:29;102641.22;;;8.22;100.00
58955;BME280;45815;52.334;5.024;2023-03-04T10:17:29;102647.81;;;8.15;100.00
58955;BME280;45815;52.334;5.024;2023-03-04T10:20:21;102644.09;;;8.27;100.00
58955;BME280;45815;52.334;5.024;2023-03-04T10:22:50;102640.75;;;8.44;100.00
58955;BME280;45815;52.334;5.024;2023-03-04T10:25:22;102641.94;;;8.65;100.00
58955;BME280;45815;52.334;5.024;2023-03-04T10:28:33;102634.09;;;8.65;100.00
58955;BME280;45815;52.334;5.024;2023-03-04T10:33:16;102628.75;;;9.12;100.00
58955;BME280;45815;52.334;5.024;2023-03-04T10:35:44;102614.50;;;9.23;100.00
58955;BME280;45815;52.334;5.024;2023-03-04T10:38:12;102617.91;;;9.38;100.00
58955;BME280;45815;52.334;5.024;2023-03-04T10:40:39;102627.13;;;9.30;100.00
58955;BME280;45815;52.334;5.024;2023-03-04T10:43:05;102640.78;;;9.24;100.00
58955;BME280;45815;52.334;5.024;2023-03-04T10:45:37;102632.16;;;9.11;100.00
58955;BME280;45815;52.334;5.024;2023-03-04T10:48:04;102632.00;;;8.91;100.00
58955;BME280;45815;52.334;5.024;2023-03-04T10:50:29;102642.97;;;8.84;100.00
58955;BME280;45815;52.334;5.024;2023-03-04T10:52:56;102639.63;;;8.55;100.00
58955;BME280;45815;52.334;5.024;2023-03-04T10:55:28;102634.50;;;8.42;100.00
58955;BME280;45815;52.334;5.024;2023-03-04T10:57:58;102650.75;;;8.51;100.00
58955;BME280;45815;52.334;5.024;2023-03-04T11:00:32;102651.28;;;8.31;100.00
58955;BME280;45815;52.334;5.024;2023-03-04T11:03:24;102651.56;;;8.20;100.00
58955;BME280;45815;52.334;5.024;2023-03-04T11:08:32;102649.94;;;8.22;100.00
58955;BME280;45815;52.334;5.024;2023-03-04T11:10:57;102640.56;;;8.41;100.00
58955;BME280;45815;52.334;5.024;2023-03-04T11:13:25;102641.00;;;8.96;100.00
58955;BME280;45815;52.334;5.024;2023-03-04T11:15:52;102637.41;;;9.43;100.00
58955;BME280;45815;52.334;5.024;2023-03-04T11:21:04;102618.34;;;9.80;100.00
58955;BME280;45815;52.334;5.024;2023-03-04T11:23:37;102596.22;;;9.75;100.00
58955;BME280;45815;52.334;5.024;2023-03-04T11:26:11;102616.69;;;9.82;100.00
58955;BME280;45815;52.334;5.024;2023-03-04T11:31:25;102632.50;;;9.49;100.00
58955;BME280;45815;52.334;5.024;2023-03-04T11:34:02;102633.16;;;9.29;100.00
58955;BME280;45815;52.334;5.024;2023-03-04T11:36:46;102629.75;;;9.14;100.00
58955;BME280;45815;52.334;5.024;2023-03-04T11:39:20;102632.75;;;9.05;100.00
58955;BME280;45815;52.334;5.024;2023-03-04T11:42:04;102627.91;;;8.96;100.00
58955;BME280;45815;52.334;5.024;2023-03-04T11:44:34;102630.72;;;8.99;100.00
58955;BME280;45815;52.334;5.024;2023-03-04T11:55:15;102620.47;;;8.71;100.00
58955;BME280;45815;52.334;5.024;2023-03-04T12:00:37;102611.00;;;8.58;100.00
58955;BME280;45815;52.334;5.024;2023-03-04T12:11:28;102600.41;;;8.72;100.00
58955;BME280;45815;52.334;5.024;2023-03-04T12:14:38;102598.69;;;8.88;100.00
58955;BME280;45815;52.334;5.024;2023-03-04T12:25:37;102577.28;;;9.99;100.00
58955;BME280;45815;52.334;5.024;2023-03-04T12:31:00;102579.59;;;9.92;100.00
58955;BME280;45815;52.334;5.024;2023-03-04T12:50:36;102563.50;;;9.00;100.00
58955;BME280;45815;52.334;5.024;2023-03-04T12:55:42;102565.41;;;9.02;100.00
58955;BME280;45815;52.334;5.024;2023-03-04T12:58:18;102556.94;;;9.08;100.00
58955;BME280;45815;52.334;5.024;2023-03-04T13:00:53;102558.34;;;9.18;100.00
58955;BME280;45815;52.334;5.024;2023-03-04T13:06:22;102558.81;;;9.11;100.00
58955;BME280;45815;52.334;5.024;2023-03-04T13:09:23;102551.28;;;9.17;100.00
58955;BME280;45815;52.334;5.024;2023-03-04T13:11:53;102524.94;;;9.14;100.00
58955;BME280;45815;52.334;5.024;2023-03-04T13:16:49;102546.91;;;9.16;100.00
58955;BME280;45815;52.334;5.024;2023-03-04T13:24:56;102543.22;;;8.96;100.00
58955;BME280;45815;52.334;5.024;2023-03-04T13:27:45;102538.56;;;8.90;100.00
58955;BME280;45815;52.334;5.024;2023-03-04T13:32:57;102530.22;;;8.97;100.00
58955;BME280;45815;52.334;5.024;2023-03-04T13:38:33;102525.47;;;9.06;100.00
58955;BME280;45815;52.334;5.024;2023-03-04T13:41:19;102518.72;;;9.12;100.00
58955;BME280;45815;52.334;5.024;2023-03-04T13:43:51;102520.84;;;9.19;100.00
58955;BME280;45815;52.334;5.024;2023-03-04T13:49:00;102508.09;;;9.08;100.00
58955;BME280;45815;52.334;5.024;2023-03-04T13:56:38;102521.47;;;8.97;100.00
58955;BME280;45815;52.334;5.024;2023-03-04T13:59:31;102525.78;;;8.80;100.00
58955;BME280;45815;52.334;5.024;2023-03-04T14:02:19;102511.25;;;8.69;100.00
58955;BME280;45815;52.334;5.024;2023-03-04T14:04:57;102520.47;;;8.62;100.00
58955;BME280;45815;52.334;5.024;2023-03-04T14:07:28;102515.31;;;8.63;100.00
58955;BME280;45815;52.334;5.024;2023-03-04T14:12:22;102522.50;;;8.51;100.00
58955;BME280;45815;52.334;5.024;2023-03-04T14:14:59;102528.31;;;8.45;100.00
58955;BME280;45815;52.334;5.024;2023-03-04T14:17:37;102531.97;;;8.18;100.00
58955;BME280;45815;52.334;5.024;2023-03-04T14:20:06;102531.16;;;8.19;100.00
58955;BME280;45815;52.334;5.024;2023-03-04T14:22:45;102534.34;;;8.13;100.00
58955;BME280;45815;52.334;5.024;2023-03-04T14:27:39;102526.41;;;8.12;100.00
58955;BME280;45815;52.334;5.024;2023-03-04T14:30:07;102521.00;;;8.09;100.00
58955;BME280;45815;52.334;5.024;2023-03-04T14:32:33;102510.91;;;8.00;100.00
58955;BME280;45815;52.334;5.024;2023-03-04T14:35:05;102508.44;;;7.87;100.00
58955;BME280;45815;52.334;5.024;2023-03-04T14:37:36;102501.16;;;7.66;100.00
58955;BME280;45815;52.334;5.024;2023-03-04T14:40:17;102503.72;;;7.96;100.00
58955;BME280;45815;52.334;5.024;2023-03-04T14:42:44;102491.34;;;8.08;100.00